createdAt,value
2022-07-30T00:00:40.120Z,23.77
2022-07-30T00:03:08.927Z,23.71
2022-07-30T00:05:39.289Z,23.58
2022-07-30T00:08:08.202Z,23.72
2022-07-30T00:10:36.998Z,23.74
2022-07-30T00:13:05.925Z,23.71
2022-07-30T00:15:34.844Z,23.62
2022-07-30T00:18:03.703Z,23.50
2022-07-30T00:20:33.512Z,23.35
2022-07-30T00:23:05.898Z,23.24
2022-07-30T00:25:35.019Z,23.06
2022-07-30T00:28:03.883Z,23.16
2022-07-30T00:30:32.799Z,22.49
2022-07-30T00:33:01.693Z,23.08
2022-07-30T00:35:30.742Z,23.01
2022-07-30T00:37:59.662Z,22.93
2022-07-30T00:40:30.203Z,22.88
2022-07-30T00:42:59.031Z,22.81
2022-07-30T00:45:28.925Z,22.76
2022-07-30T00:47:59.011Z,22.76
2022-07-30T00:50:27.840Z,22.71
2022-07-30T00:52:56.687Z,22.69
2022-07-30T00:55:25.500Z,22.62
2022-07-30T00:57:55.787Z,22.53
2022-07-30T01:00:25.572Z,22.51
2022-07-30T01:02:54.494Z,22.51
2022-07-30T01:05:23.315Z,22.53
2022-07-30T01:07:52.646Z,22.56
2022-07-30T01:10:21.575Z,22.51
2022-07-30T01:12:52.880Z,22.50
2022-07-30T01:15:23.675Z,22.50
2022-07-30T01:17:56.860Z,22.48
2022-07-30T01:20:29.139Z,22.43
2022-07-30T01:23:06.773Z,22.37
2022-07-30T01:25:56.850Z,22.28
2022-07-30T01:28:29.360Z,22.26
2022-07-30T01:31:00.657Z,22.19
2022-07-30T01:33:30.174Z,22.16
2022-07-30T01:36:00.751Z,22.19
2022-07-30T01:38:35.262Z,22.20
2022-07-30T01:41:08.177Z,21.15
2022-07-30T01:43:38.069Z,21.92
2022-07-30T01:46:08.727Z,22.01
2022-07-30T01:48:41.899Z,21.98
2022-07-30T01:51:14.066Z,21.97
2022-07-30T01:53:49.613Z,21.95
2022-07-30T01:56:25.160Z,21.71
2022-07-30T01:58:57.180Z,21.94
2022-07-30T02:01:28.151Z,21.85
2022-07-30T02:04:04.245Z,21.85
2022-07-30T02:06:41.675Z,21.83
2022-07-30T02:09:17.045Z,21.75
2022-07-30T02:12:09.659Z,21.55
2022-07-30T02:14:43.135Z,21.67
2022-07-30T02:17:18.514Z,21.66
2022-07-30T02:19:51.247Z,21.63
2022-07-30T02:22:23.434Z,21.58
2022-07-30T02:24:53.598Z,21.54
2022-07-30T02:27:28.842Z,21.48
2022-07-30T02:30:00.703Z,21.45
2022-07-30T02:32:39.229Z,21.44
2022-07-30T02:35:11.990Z,21.39
2022-07-30T02:37:44.176Z,21.12
2022-07-30T02:40:17.232Z,21.31
2022-07-30T02:42:50.640Z,21.32
2022-07-30T02:45:25.405Z,21.34
2022-07-30T02:47:59.242Z,21.36
2022-07-30T02:50:30.072Z,21.38
2022-07-30T02:53:01.323Z,21.29
2022-07-30T02:55:33.141Z,21.25
2022-07-30T02:58:05.652Z,21.44
2022-07-30T03:00:36.051Z,21.41
2022-07-30T03:03:08.135Z,21.42
2022-07-30T03:05:41.085Z,21.40
2022-07-30T03:08:11.790Z,21.41
2022-07-30T03:10:42.841Z,21.37
2022-07-30T03:13:14.907Z,21.32
2022-07-30T03:15:49.147Z,20.65
2022-07-30T03:18:21.297Z,21.29
2022-07-30T03:20:55.010Z,21.27
2022-07-30T03:23:25.382Z,21.10
2022-07-30T03:25:58.488Z,21.27
2022-07-30T03:28:30.983Z,21.25
2022-07-30T03:31:01.214Z,21.26
2022-07-30T03:33:38.909Z,21.29
2022-07-30T03:36:09.607Z,21.22
2022-07-30T03:38:39.294Z,21.33
2022-07-30T03:41:10.239Z,21.29
2022-07-30T03:43:41.999Z,21.57
2022-07-30T03:46:12.543Z,21.55
2022-07-30T03:48:46.214Z,21.50
2022-07-30T03:51:15.334Z,21.45
2022-07-30T03:53:44.768Z,21.39
2022-07-30T03:56:32.331Z,21.35
2022-07-30T03:59:11.098Z,21.15
2022-07-30T04:01:42.970Z,21.19
2022-07-30T04:04:26.525Z,21.11
2022-07-30T04:06:56.459Z,21.04
2022-07-30T04:09:25.263Z,20.98
2022-07-30T04:11:54.281Z,20.95
2022-07-30T04:14:29.363Z,20.90
2022-07-30T04:17:04.149Z,20.86
2022-07-30T04:19:39.063Z,20.87
2022-07-30T04:22:12.699Z,20.90
2022-07-30T04:24:43.630Z,20.94
2022-07-30T04:27:12.944Z,20.97
2022-07-30T04:29:43.486Z,21.07
2022-07-30T04:32:13.082Z,21.13
2022-07-30T04:34:48.979Z,21.20
2022-07-30T04:37:24.001Z,21.20
2022-07-30T04:39:55.167Z,21.19
2022-07-30T04:42:24.163Z,21.22
2022-07-30T04:45:04.150Z,21.23
2022-07-30T04:47:48.235Z,20.23
2022-07-30T04:50:56.685Z,21.15
2022-07-30T04:53:27.339Z,21.13
2022-07-30T04:56:01.535Z,20.91
2022-07-30T04:58:33.358Z,21.14
2022-07-30T05:01:05.339Z,21.22
2022-07-30T05:03:36.432Z,20.99
2022-07-30T05:06:06.955Z,21.41
2022-07-30T05:08:40.261Z,21.29
2022-07-30T05:11:13.850Z,21.61
2022-07-30T05:13:46.105Z,21.70
2022-07-30T05:16:19.264Z,21.81
2022-07-30T05:18:49.486Z,21.86
2022-07-30T05:21:18.510Z,21.97
2022-07-30T05:23:50.826Z,22.03
2022-07-30T05:26:42.695Z,22.07
2022-07-30T05:29:14.965Z,22.13
2022-07-30T05:31:56.926Z,22.20
2022-07-30T05:34:32.363Z,22.30
2022-07-30T05:37:01.809Z,22.39
2022-07-30T05:39:31.226Z,22.55
2022-07-30T05:42:36.550Z,22.80
2022-07-30T05:45:05.778Z,22.96
2022-07-30T05:47:36.129Z,23.22
2022-07-30T05:50:05.572Z,23.53
2022-07-30T05:52:34.859Z,23.76
2022-07-30T05:55:15.114Z,23.93
2022-07-30T05:58:10.185Z,24.04
2022-07-30T06:00:39.122Z,24.12
2022-07-30T06:03:09.639Z,24.25
2022-07-30T06:05:56.984Z,24.42
2022-07-30T06:08:25.855Z,24.70
2022-07-30T06:10:54.606Z,25.18
2022-07-30T06:13:23.825Z,25.83
2022-07-30T06:15:52.804Z,26.54
2022-07-30T06:18:23.512Z,27.28
2022-07-30T06:20:55.975Z,27.94
2022-07-30T06:23:53.669Z,28.58
2022-07-30T06:26:41.157Z,29.24
2022-07-30T06:29:10.504Z,29.78
2022-07-30T06:31:42.536Z,30.29
2022-07-30T06:34:15.156Z,30.70
2022-07-30T06:36:44.820Z,31.17
2022-07-30T06:39:56.091Z,31.49
2022-07-30T06:42:21.330Z,31.78
2022-07-30T06:45:11.634Z,31.78
2022-07-30T06:47:59.920Z,32.35
2022-07-30T06:50:33.123Z,32.65
2022-07-30T06:53:02.084Z,32.92
2022-07-30T06:55:45.644Z,33.08
2022-07-30T06:58:14.497Z,33.25
2022-07-30T07:01:11.060Z,33.29
2022-07-30T07:03:41.957Z,33.43
2022-07-30T07:06:12.558Z,33.71
2022-07-30T07:08:41.303Z,33.94
2022-07-30T07:11:12.743Z,34.01
2022-07-30T07:13:48.171Z,34.10
2022-07-30T07:16:26.393Z,34.36
2022-07-30T07:18:57.261Z,34.54
2022-07-30T07:21:27.699Z,34.64
2022-07-30T07:23:57.408Z,34.62
2022-07-30T07:26:44.712Z,34.88
2022-07-30T07:29:13.676Z,35.06
2022-07-30T07:32:06.273Z,35.34
2022-07-30T07:34:31.588Z,35.45
2022-07-30T07:37:02.384Z,35.70
2022-07-30T07:39:31.454Z,35.73
2022-07-30T07:42:00.846Z,35.60
2022-07-30T07:44:32.615Z,35.47
2022-07-30T07:47:02.171Z,35.52
2022-07-30T07:49:35.058Z,35.52
2022-07-30T07:52:05.993Z,35.69
2022-07-30T07:54:34.764Z,35.84
2022-07-30T07:57:04.772Z,35.63
2022-07-30T07:59:40.957Z,35.79
2022-07-30T08:02:21.256Z,35.71
2022-07-30T08:05:10.818Z,35.73
2022-07-30T08:07:56.205Z,35.66
2022-07-30T08:10:43.624Z,35.70
2022-07-30T08:13:52.376Z,35.53
2022-07-30T08:16:40.691Z,35.26
2022-07-30T08:19:15.167Z,35.07
2022-07-30T08:21:53.208Z,34.66
2022-07-30T08:24:23.549Z,34.51
2022-07-30T08:26:52.426Z,34.37
2022-07-30T08:29:21.238Z,34.16
2022-07-30T08:31:50.476Z,33.99
2022-07-30T08:34:20.743Z,33.76
2022-07-30T08:36:57.433Z,33.53
2022-07-30T08:39:28.503Z,33.45
2022-07-30T08:41:57.746Z,33.37
2022-07-30T08:44:27.738Z,33.05
2022-07-30T08:46:58.925Z,33.34
2022-07-30T08:49:51.203Z,33.28
2022-07-30T08:52:24.965Z,33.32
2022-07-30T08:55:03.363Z,33.40
2022-07-30T08:57:35.103Z,33.05
2022-07-30T09:00:07.503Z,33.34
2022-07-30T09:02:36.717Z,33.24
2022-07-30T09:05:07.780Z,33.13
2022-07-30T09:07:37.876Z,32.85
2022-07-30T09:10:13.540Z,33.07
2022-07-30T09:12:43.802Z,33.10
2022-07-30T09:15:15.913Z,32.78
2022-07-30T09:17:50.275Z,33.08
2022-07-30T09:20:19.955Z,33.10
2022-07-30T09:22:50.043Z,33.23
2022-07-30T09:25:47.914Z,33.25
2022-07-30T09:28:36.107Z,33.23
2022-07-30T09:31:14.092Z,33.33
2022-07-30T09:34:01.586Z,33.43
2022-07-30T09:37:01.144Z,33.44
2022-07-30T09:39:34.760Z,33.61
2022-07-30T09:42:28.540Z,33.76
2022-07-30T09:45:08.191Z,33.90
2022-07-30T09:47:39.219Z,33.87
2022-07-30T09:50:09.755Z,34.10
2022-07-30T09:52:43.944Z,34.14
2022-07-30T09:55:31.038Z,34.31
2022-07-30T09:58:03.150Z,34.44
2022-07-30T10:00:34.100Z,34.53
2022-07-30T10:03:41.651Z,34.52
2022-07-30T10:06:35.605Z,34.52
2022-07-30T10:09:27.212Z,34.67
2022-07-30T10:11:58.728Z,34.80
2022-07-30T10:14:34.350Z,34.99
2022-07-30T10:17:11.789Z,34.92
2022-07-30T10:19:43.566Z,35.30
2022-07-30T10:22:50.531Z,35.40
2022-07-30T10:25:49.439Z,35.57
2022-07-30T10:28:44.421Z,35.70
2022-07-30T10:31:48.801Z,35.74
2022-07-30T10:34:06.562Z,35.79
2022-07-30T10:36:37.261Z,35.81
2022-07-30T10:39:09.187Z,35.87
2022-07-30T10:41:53.999Z,35.72
2022-07-30T10:44:52.990Z,35.76
2022-07-30T10:47:29.760Z,35.85
2022-07-30T10:50:15.691Z,35.92
2022-07-30T10:52:50.807Z,36.04
2022-07-30T10:55:37.497Z,36.07
2022-07-30T10:58:10.446Z,36.15
2022-07-30T11:01:00.788Z,36.26
2022-07-30T11:03:41.592Z,36.37
2022-07-30T11:06:31.755Z,36.43
2022-07-30T11:09:00.789Z,36.52
2022-07-30T11:12:04.879Z,36.47
2022-07-30T11:15:07.569Z,36.34
2022-07-30T11:18:12.835Z,36.45
2022-07-30T11:20:48.710Z,36.72
2022-07-30T11:23:40.251Z,36.89
2022-07-30T11:26:14.482Z,36.80
2022-07-30T11:28:49.605Z,36.71
2022-07-30T11:31:55.507Z,36.53
2022-07-30T11:34:29.769Z,36.74
2022-07-30T11:37:18.459Z,36.31
2022-07-30T11:40:13.977Z,36.92
2022-07-30T11:42:43.927Z,36.82
2022-07-30T11:45:31.195Z,36.79
2022-07-30T11:48:03.824Z,36.90
2022-07-30T11:50:34.919Z,37.09
2022-07-30T11:53:06.853Z,37.12
2022-07-30T11:55:39.108Z,37.20
2022-07-30T11:58:09.935Z,37.19
2022-07-30T12:00:41.277Z,36.93
2022-07-30T12:03:12.299Z,36.80
2022-07-30T12:05:42.212Z,36.72
2022-07-30T12:08:31.702Z,36.78
2022-07-30T12:11:03.502Z,36.96
2022-07-30T12:13:45.370Z,37.12
2022-07-30T12:16:18.663Z,37.29
2022-07-30T12:18:48.560Z,37.31
2022-07-30T12:21:18.099Z,37.28
2022-07-30T12:23:57.721Z,37.33
2022-07-30T12:26:29.125Z,37.44
2022-07-30T12:29:00.944Z,37.47
2022-07-30T12:31:30.204Z,37.50
2022-07-30T12:34:00.653Z,37.57
2022-07-30T12:36:32.339Z,37.54
2022-07-30T12:39:03.891Z,37.40
2022-07-30T12:41:47.111Z,37.41
2022-07-30T12:44:37.793Z,37.39
2022-07-30T12:47:07.807Z,37.42
2022-07-30T12:49:48.597Z,37.56
2022-07-30T12:52:28.250Z,37.54
2022-07-30T12:55:10.252Z,37.78
2022-07-30T12:58:02.974Z,37.81
2022-07-30T13:00:52.553Z,37.71
2022-07-30T13:03:23.033Z,37.77
2022-07-30T13:05:55.668Z,37.77
2022-07-30T13:08:53.127Z,37.81
2022-07-30T13:11:24.859Z,37.82
2022-07-30T13:13:54.521Z,37.94
2022-07-30T13:16:23.558Z,37.83
2022-07-30T13:18:52.511Z,37.39
2022-07-30T13:21:21.509Z,36.99
2022-07-30T13:23:50.482Z,36.71
2022-07-30T13:26:19.498Z,36.79
2022-07-30T13:28:50.027Z,36.94
2022-07-30T13:31:19.647Z,37.00
2022-07-30T13:33:48.526Z,37.07
2022-07-30T13:36:18.047Z,37.23
2022-07-30T13:38:52.063Z,37.50
2022-07-30T13:41:21.586Z,37.68
2022-07-30T13:43:51.982Z,37.75
2022-07-30T13:46:21.010Z,37.86
2022-07-30T13:48:50.245Z,37.94
2022-07-30T13:51:19.247Z,37.98
2022-07-30T13:53:48.195Z,38.02
2022-07-30T13:56:19.715Z,38.00
2022-07-30T13:58:48.993Z,37.99
2022-07-30T14:01:19.497Z,37.90
2022-07-30T14:03:50.578Z,37.88
2022-07-30T14:06:20.012Z,37.92
2022-07-30T14:08:48.968Z,37.98
2022-07-30T14:11:18.150Z,37.92
2022-07-30T14:13:47.338Z,37.82
2022-07-30T14:16:42.437Z,37.48
2022-07-30T14:19:07.467Z,37.59
2022-07-30T14:21:36.510Z,37.64
2022-07-30T14:24:07.993Z,37.72
2022-07-30T14:26:37.482Z,37.77
2022-07-30T14:29:06.593Z,37.79
2022-07-30T14:31:36.135Z,37.74
2022-07-30T14:34:06.799Z,37.70
2022-07-30T14:36:37.558Z,37.72
2022-07-30T14:39:07.620Z,37.66
2022-07-30T14:41:37.574Z,37.58
2022-07-30T14:44:09.963Z,37.68
2022-07-30T14:46:38.946Z,37.68
2022-07-30T14:49:24.155Z,37.64
2022-07-30T14:51:53.650Z,37.54
2022-07-30T14:54:22.828Z,37.48
2022-07-30T14:56:57.746Z,37.41
2022-07-30T14:59:28.159Z,37.36
2022-07-30T15:01:57.689Z,37.27
2022-07-30T15:04:28.327Z,37.11
2022-07-30T15:06:57.580Z,36.98
2022-07-30T15:09:26.426Z,36.92
2022-07-30T15:12:10.972Z,36.90
2022-07-30T15:14:41.047Z,36.86
2022-07-30T15:17:10.148Z,37.02
2022-07-30T15:19:50.387Z,36.94
2022-07-30T15:22:20.301Z,36.88
2022-07-30T15:24:50.360Z,36.94
2022-07-30T15:27:22.340Z,36.89
2022-07-30T15:29:53.938Z,36.91
2022-07-30T15:32:22.777Z,36.93
2022-07-30T15:34:53.292Z,36.89
2022-07-30T15:37:23.474Z,36.86
2022-07-30T15:39:53.724Z,36.80
2022-07-30T15:42:22.660Z,36.77
2022-07-30T15:45:15.453Z,36.74
2022-07-30T15:47:40.785Z,36.71
2022-07-30T15:50:12.016Z,36.70
2022-07-30T15:52:41.008Z,36.73
2022-07-30T15:55:10.926Z,36.67
2022-07-30T15:57:40.831Z,36.60
2022-07-30T16:00:12.829Z,36.55
2022-07-30T16:02:43.920Z,36.49
2022-07-30T16:05:14.487Z,36.45
2022-07-30T16:07:43.653Z,36.44
2022-07-30T16:10:15.834Z,36.36
2022-07-30T16:12:44.918Z,36.32
2022-07-30T16:15:14.314Z,36.28
2022-07-30T16:17:46.232Z,36.25
2022-07-30T16:20:18.141Z,36.19
2022-07-30T16:22:48.034Z,36.12
2022-07-30T16:25:18.222Z,36.04
2022-07-30T16:27:47.277Z,35.96
2022-07-30T16:30:16.218Z,35.91
2022-07-30T16:32:45.294Z,35.87
2022-07-30T16:35:14.334Z,35.83
2022-07-30T16:37:44.805Z,35.79
2022-07-30T16:40:14.240Z,35.76
2022-07-30T16:42:43.262Z,35.74
2022-07-30T16:45:12.770Z,35.74
2022-07-30T16:47:41.780Z,35.70
2022-07-30T16:50:11.670Z,35.64
2022-07-30T16:52:40.625Z,35.60
2022-07-30T16:55:11.739Z,35.57
2022-07-30T16:57:40.730Z,35.55
2022-07-30T17:00:12.489Z,35.45
2022-07-30T17:02:41.525Z,35.36
2022-07-30T17:05:13.769Z,35.39
2022-07-30T17:07:43.286Z,35.38
2022-07-30T17:10:13.818Z,35.34
2022-07-30T17:12:50.867Z,35.28
2022-07-30T17:15:20.249Z,35.20
2022-07-30T17:18:01.342Z,35.16
2022-07-30T17:20:30.491Z,35.08
2022-07-30T17:22:59.457Z,35.06
2022-07-30T17:25:30.049Z,35.03
2022-07-30T17:28:00.366Z,34.95
2022-07-30T17:30:30.179Z,34.94
2022-07-30T17:32:59.462Z,34.84
2022-07-30T17:35:28.494Z,34.77
2022-07-30T17:37:57.377Z,34.75
2022-07-30T17:40:31.656Z,34.73
2022-07-30T17:43:04.906Z,34.72
2022-07-30T17:45:34.615Z,34.67
2022-07-30T17:48:03.712Z,34.57
2022-07-30T17:50:33.030Z,34.46
2022-07-30T17:53:03.695Z,34.34
2022-07-30T17:55:35.287Z,34.38
2022-07-30T17:58:06.471Z,34.29
2022-07-30T18:00:36.164Z,34.25
2022-07-30T18:03:05.641Z,34.18
2022-07-30T18:05:34.679Z,34.11
2022-07-30T18:08:03.592Z,34.02
2022-07-30T18:10:32.631Z,33.94
2022-07-30T18:13:25.818Z,33.90
2022-07-30T18:15:52.942Z,33.83
2022-07-30T18:18:22.011Z,33.69
2022-07-30T18:20:50.959Z,33.73
2022-07-30T18:23:20.514Z,33.69
2022-07-30T18:25:54.241Z,33.61
2022-07-30T18:28:23.741Z,33.47
2022-07-30T18:30:55.354Z,33.39
2022-07-30T18:33:24.402Z,33.01
2022-07-30T18:35:54.291Z,33.24
2022-07-30T18:38:23.277Z,33.14
2022-07-30T18:40:59.182Z,33.04
2022-07-30T18:43:29.246Z,32.99
2022-07-30T18:46:02.766Z,32.94
2022-07-30T18:48:31.822Z,32.90
2022-07-30T18:51:00.882Z,32.83
2022-07-30T18:53:29.909Z,32.78
2022-07-30T18:55:59.374Z,32.74
2022-07-30T18:58:28.330Z,32.66
2022-07-30T19:01:00.252Z,32.58
2022-07-30T19:03:29.262Z,32.48
2022-07-30T19:05:58.306Z,32.42
2022-07-30T19:08:27.937Z,32.31
2022-07-30T19:10:56.817Z,32.22
2022-07-30T19:13:26.377Z,32.09
2022-07-30T19:15:56.203Z,31.27
2022-07-30T19:18:26.829Z,31.88
2022-07-30T19:20:55.749Z,31.78
2022-07-30T19:23:24.734Z,31.68
2022-07-30T19:25:55.982Z,31.57
2022-07-30T19:28:25.594Z,31.46
2022-07-30T19:30:54.419Z,31.36
2022-07-30T19:33:24.327Z,31.27
2022-07-30T19:35:54.581Z,31.18
2022-07-30T19:38:23.952Z,31.10
2022-07-30T19:40:53.516Z,30.99
2022-07-30T19:43:23.927Z,30.90
2022-07-30T19:45:53.268Z,30.85
2022-07-30T19:48:28.903Z,30.74
2022-07-30T19:51:02.044Z,30.60
2022-07-30T19:53:34.391Z,30.49
2022-07-30T19:56:08.424Z,30.35
2022-07-30T19:58:40.519Z,30.29
2022-07-30T20:01:10.021Z,30.19
2022-07-30T20:03:39.277Z,30.03
2022-07-30T20:06:14.506Z,29.85
2022-07-30T20:08:44.562Z,29.71
2022-07-30T20:11:21.130Z,29.52
2022-07-30T20:14:03.558Z,29.40
2022-07-30T20:16:32.498Z,29.26
2022-07-30T20:19:03.299Z,29.12
2022-07-30T20:21:57.513Z,28.96
2022-07-30T20:24:25.624Z,28.80
2022-07-30T20:26:54.488Z,28.69
2022-07-30T20:29:23.879Z,28.54
2022-07-30T20:31:53.630Z,28.33
2022-07-30T20:34:25.958Z,28.17
2022-07-30T20:36:56.781Z,28.01
2022-07-30T20:39:26.466Z,27.82
2022-07-30T20:42:08.074Z,27.71
2022-07-30T20:44:38.230Z,27.57
2022-07-30T20:47:08.332Z,27.49
2022-07-30T20:49:37.539Z,27.44
2022-07-30T20:52:10.849Z,27.38
2022-07-30T20:54:45.034Z,27.30
2022-07-30T20:57:15.649Z,27.23
2022-07-30T20:59:48.922Z,27.17
2022-07-30T21:02:18.959Z,27.13
2022-07-30T21:04:59.809Z,27.11
2022-07-30T21:07:36.622Z,27.12
2022-07-30T21:10:07.377Z,27.13
2022-07-30T21:12:37.242Z,27.09
2022-07-30T21:17:57.763Z,27.17
2022-07-30T21:20:27.996Z,27.21
2022-07-30T21:23:04.931Z,27.18
2022-07-30T21:25:34.483Z,27.35
2022-07-30T21:28:27.544Z,27.35
2022-07-30T21:30:57.151Z,27.39
2022-07-30T21:33:30.957Z,27.46
2022-07-30T21:36:01.207Z,27.46
2022-07-30T21:38:32.157Z,27.46
2022-07-30T21:41:02.609Z,27.27
2022-07-30T21:43:39.707Z,27.28
2022-07-30T21:46:11.130Z,27.26
2022-07-30T21:48:40.113Z,27.29
2022-07-30T21:51:10.057Z,27.30
2022-07-30T21:53:45.030Z,27.31
2022-07-30T21:56:16.290Z,27.28
2022-07-30T21:58:46.142Z,27.25
2022-07-30T22:01:22.574Z,27.24
2022-07-30T22:04:03.169Z,27.25
2022-07-30T22:06:37.762Z,27.22
2022-07-30T22:09:19.565Z,27.27
2022-07-30T22:12:09.245Z,27.33
2022-07-30T22:14:39.402Z,27.34
2022-07-30T22:17:22.463Z,27.34
2022-07-30T22:19:54.790Z,27.32
2022-07-30T22:22:27.214Z,27.34
2022-07-30T22:25:00.037Z,27.34
2022-07-30T22:27:39.392Z,27.34
2022-07-30T22:30:11.272Z,27.36
2022-07-30T22:32:43.134Z,27.32
2022-07-30T22:35:13.146Z,27.34
2022-07-30T22:37:46.041Z,27.30
2022-07-30T22:40:16.441Z,27.30
2022-07-30T22:42:46.716Z,27.27
2022-07-30T22:45:45.770Z,27.28
2022-07-30T22:48:11.081Z,27.24
2022-07-30T22:50:40.915Z,27.29
2022-07-30T22:53:56.659Z,27.28
2022-07-30T22:56:00.773Z,27.25
2022-07-30T22:58:30.375Z,27.19
2022-07-30T23:00:59.237Z,27.13
2022-07-30T23:03:28.121Z,27.06
2022-07-30T23:05:57.290Z,27.04
2022-07-30T23:08:30.191Z,27.01
2022-07-30T23:11:01.247Z,26.91
2022-07-30T23:12:32.128Z,27.12
2022-07-30T23:13:30.891Z,26.86
2022-07-30T23:16:00.016Z,26.72
2022-07-30T23:18:29.131Z,26.69
2022-07-30T23:21:00.427Z,26.61
2022-07-30T23:23:30.873Z,26.58
2022-07-30T23:26:04.542Z,26.54
2022-07-30T23:28:33.633Z,26.55
2022-07-30T23:31:03.690Z,26.57
2022-07-30T23:33:33.214Z,26.58
2022-07-30T23:36:02.127Z,26.58
2022-07-30T23:38:31.014Z,26.53
2022-07-30T23:41:02.158Z,26.52
2022-07-30T23:43:32.858Z,26.50
2022-07-30T23:46:01.807Z,26.51
2022-07-30T23:48:31.888Z,26.50
2022-07-30T23:51:00.854Z,26.46
2022-07-30T23:53:29.727Z,26.41
2022-07-30T23:55:58.880Z,26.39
2022-07-30T23:58:27.691Z,26.35
